createdAt,value
2023-02-18T00:00:59.587Z,1.40
2023-02-18T00:01:59.586Z,1.40
2023-02-18T00:02:59.568Z,1.30
2023-02-18T00:03:59.587Z,1.30
2023-02-18T00:04:59.545Z,1.40
2023-02-18T00:05:59.539Z,1.40
2023-02-18T00:06:59.563Z,1.30
2023-02-18T00:07:59.508Z,1.40
2023-02-18T00:08:59.503Z,1.30
2023-02-18T00:09:59.494Z,1.40
2023-02-18T00:10:59.491Z,1.30
2023-02-18T00:11:59.482Z,1.30
2023-02-18T00:12:59.475Z,1.60
2023-02-18T00:13:59.454Z,1.30
2023-02-18T00:14:59.445Z,1.30
2023-02-18T00:15:59.444Z,1.30
2023-02-18T00:16:59.430Z,1.50
2023-02-18T00:17:59.418Z,1.50
2023-02-18T00:18:59.422Z,1.40
2023-02-18T00:19:59.416Z,1.40
2023-02-18T00:20:59.382Z,1.20
2023-02-18T00:21:59.375Z,1.40
2023-02-18T00:22:59.360Z,1.30
2023-02-18T00:23:59.349Z,1.40
2023-02-18T00:24:59.346Z,1.40
2023-02-18T00:25:59.329Z,1.50
2023-02-18T00:26:59.336Z,1.40
2023-02-18T00:27:59.352Z,1.20
2023-02-18T00:28:59.407Z,1.30
2023-02-18T00:29:59.316Z,1.40
2023-02-18T00:30:59.323Z,1.40
2023-02-18T00:31:59.362Z,1.30
2023-02-18T00:32:59.270Z,1.40
2023-02-18T00:33:59.251Z,1.40
2023-02-18T00:34:59.245Z,1.40
2023-02-18T00:35:59.227Z,1.30
2023-02-18T00:36:59.241Z,1.30
2023-02-18T00:37:59.206Z,1.30
2023-02-18T00:38:59.208Z,1.40
2023-02-18T00:39:59.190Z,1.20
2023-02-18T00:40:59.174Z,1.50
2023-02-18T00:41:59.172Z,1.30
2023-02-18T00:42:59.157Z,1.30
2023-02-18T00:43:59.142Z,1.40
2023-02-18T00:44:59.149Z,1.40
2023-02-18T00:45:59.144Z,1.30
2023-02-18T00:46:59.115Z,1.30
2023-02-18T00:47:59.107Z,1.30
2023-02-18T00:48:59.098Z,1.40
2023-02-18T00:49:59.093Z,1.40
2023-02-18T00:50:59.073Z,1.40
2023-02-18T00:51:59.063Z,1.30
2023-02-18T00:52:59.056Z,1.40
2023-02-18T00:53:59.041Z,1.40
2023-02-18T00:54:59.036Z,1.40
2023-02-18T00:55:59.033Z,1.40
2023-02-18T00:56:59.020Z,1.30
2023-02-18T00:57:59.004Z,1.30
2023-02-18T00:58:59.004Z,1.40
2023-02-18T00:59:58.981Z,1.30
2023-02-18T01:00:58.970Z,1.50
2023-02-18T01:01:59.012Z,1.40
2023-02-18T01:02:58.967Z,1.40
2023-02-18T01:03:58.956Z,1.30
2023-02-18T01:04:58.956Z,1.30
2023-02-18T01:05:58.916Z,1.30
2023-02-18T01:06:58.928Z,1.20
2023-02-18T01:07:58.903Z,1.50
2023-02-18T01:08:58.898Z,1.40
2023-02-18T01:09:58.889Z,1.30
2023-02-18T01:10:58.884Z,1.40
2023-02-18T01:11:58.867Z,1.40
2023-02-18T01:12:58.855Z,1.40
2023-02-18T01:13:58.841Z,1.50
2023-02-18T01:14:58.845Z,1.30
2023-02-18T01:15:58.843Z,1.40
2023-02-18T01:16:58.825Z,1.50
2023-02-18T01:17:58.802Z,1.30
2023-02-18T01:18:58.802Z,1.30
2023-02-18T01:19:58.785Z,1.30
2023-02-18T01:20:58.777Z,1.40
2023-02-18T01:21:58.758Z,1.50
2023-02-18T01:22:58.763Z,1.60
2023-02-18T01:23:58.747Z,1.40
2023-02-18T01:24:58.733Z,1.30
2023-02-18T01:25:58.741Z,1.30
2023-02-18T01:26:58.716Z,1.40
2023-02-18T01:27:58.717Z,1.40
2023-02-18T01:28:58.702Z,1.40
2023-02-18T01:29:58.755Z,1.50
2023-02-18T01:30:58.736Z,1.30
2023-02-18T01:31:58.718Z,1.30
2023-02-18T01:32:58.664Z,1.40
2023-02-18T01:33:58.641Z,1.50
2023-02-18T01:34:58.634Z,1.50
2023-02-18T01:35:58.618Z,1.40
2023-02-18T01:36:58.615Z,1.40
2023-02-18T01:37:58.614Z,1.60
2023-02-18T01:38:58.589Z,1.50
2023-02-18T01:39:58.572Z,1.40
2023-02-18T01:40:58.569Z,1.40
2023-02-18T01:41:58.562Z,1.50
2023-02-18T01:42:58.565Z,1.40
2023-02-18T01:43:58.531Z,1.30
2023-02-18T01:44:58.541Z,1.30
2023-02-18T01:45:58.515Z,1.40
2023-02-18T01:46:58.554Z,1.40
2023-02-18T01:47:58.498Z,1.30
2023-02-18T01:48:58.487Z,1.40
2023-02-18T01:49:58.481Z,1.50
2023-02-18T01:50:58.462Z,1.40
2023-02-18T01:51:58.459Z,1.40
2023-02-18T01:52:58.435Z,1.50
2023-02-18T01:53:58.432Z,1.50
2023-02-18T01:54:58.434Z,1.50
2023-02-18T01:55:58.413Z,1.40
2023-02-18T01:56:58.401Z,1.60
2023-02-18T01:57:58.387Z,1.40
2023-02-18T01:58:58.383Z,1.40
2023-02-18T01:59:58.399Z,1.50
2023-02-18T02:00:58.391Z,1.40
2023-02-18T02:01:58.400Z,1.50
2023-02-18T02:02:58.354Z,1.50
2023-02-18T02:03:58.325Z,1.40
2023-02-18T02:04:58.327Z,1.50
2023-02-18T02:05:58.307Z,1.60
2023-02-18T02:06:58.298Z,1.30
2023-02-18T02:07:58.297Z,1.60
2023-02-18T02:08:58.274Z,1.60
2023-02-18T02:09:58.287Z,1.40
2023-02-18T02:10:58.251Z,1.40
2023-02-18T02:11:58.243Z,1.70
2023-02-18T02:12:58.233Z,1.40
2023-02-18T02:13:58.225Z,1.50
2023-02-18T02:14:58.224Z,1.40
2023-02-18T02:15:58.334Z,1.50
2023-02-18T02:16:58.191Z,1.40
2023-02-18T02:17:58.184Z,1.60
2023-02-18T02:18:58.177Z,1.20
2023-02-18T02:19:58.174Z,1.50
2023-02-18T02:20:58.177Z,1.40
2023-02-18T02:21:58.148Z,1.40
2023-02-18T02:22:58.129Z,1.50
2023-02-18T02:23:58.123Z,1.50
2023-02-18T02:24:58.106Z,1.50
2023-02-18T02:25:58.117Z,1.40
2023-02-18T02:26:58.089Z,1.50
2023-02-18T02:27:58.082Z,1.60
2023-02-18T02:28:58.090Z,1.40
2023-02-18T02:29:58.161Z,1.60
2023-02-18T02:30:58.109Z,1.40
2023-02-18T02:31:58.202Z,1.50
2023-02-18T02:32:58.043Z,1.50
2023-02-18T02:33:58.040Z,1.50
2023-02-18T02:34:58.006Z,1.50
2023-02-18T02:35:57.999Z,1.60
2023-02-18T02:36:58.580Z,1.60
2023-02-18T02:37:57.984Z,1.50
2023-02-18T02:38:57.996Z,1.50
2023-02-18T02:39:57.969Z,1.50
2023-02-18T02:40:57.958Z,1.50
2023-02-18T02:41:57.941Z,1.50
2023-02-18T02:42:57.936Z,1.50
2023-02-18T02:43:57.943Z,1.60
2023-02-18T02:44:57.924Z,1.40
2023-02-18T02:45:57.966Z,1.60
2023-02-18T02:46:57.885Z,1.60
2023-02-18T02:47:57.887Z,1.50
2023-02-18T02:48:57.868Z,1.50
2023-02-18T02:49:57.887Z,1.50
2023-02-18T02:50:57.845Z,1.40
2023-02-18T02:51:57.845Z,1.50
2023-02-18T02:52:57.830Z,1.60
2023-02-18T02:53:57.832Z,1.60
2023-02-18T02:54:57.930Z,1.50
2023-02-18T02:55:57.817Z,1.70
2023-02-18T02:56:57.789Z,1.50
2023-02-18T02:57:57.783Z,1.50
2023-02-18T02:58:57.768Z,1.50
2023-02-18T02:59:57.771Z,1.50
2023-02-18T03:00:57.831Z,1.50
2023-02-18T03:01:57.745Z,1.50
2023-02-18T03:02:57.834Z,1.60
2023-02-18T03:03:57.730Z,1.50
2023-02-18T03:04:57.715Z,1.90
2023-02-18T03:05:57.714Z,1.60
2023-02-18T03:06:57.693Z,1.40
2023-02-18T03:07:57.680Z,1.50
2023-02-18T03:08:57.663Z,1.60
2023-02-18T03:09:57.673Z,1.50
2023-02-18T03:10:57.652Z,1.60
2023-02-18T03:11:57.665Z,1.60
2023-02-18T03:12:57.631Z,1.60
2023-02-18T03:13:57.640Z,1.50
2023-02-18T03:14:57.604Z,1.50
2023-02-18T03:15:57.604Z,1.60
2023-02-18T03:16:57.592Z,1.50
2023-02-18T03:17:57.579Z,1.40
2023-02-18T03:18:57.572Z,1.60
2023-02-18T03:19:57.562Z,1.50
2023-02-18T03:20:57.539Z,1.60
2023-02-18T03:21:57.551Z,1.50
2023-02-18T03:22:57.533Z,1.50
2023-02-18T03:23:57.522Z,1.50
2023-02-18T03:24:57.505Z,1.50
2023-02-18T03:25:57.492Z,1.60
2023-02-18T03:26:57.489Z,1.40
2023-02-18T03:27:57.493Z,1.40
2023-02-18T03:28:57.463Z,1.60
2023-02-18T03:29:57.451Z,1.60
2023-02-18T03:30:57.459Z,1.50
2023-02-18T03:31:57.555Z,1.60
2023-02-18T03:32:57.426Z,1.60
2023-02-18T03:33:57.414Z,1.50
2023-02-18T03:34:57.406Z,1.60
2023-02-18T03:35:57.396Z,1.60
2023-02-18T03:36:57.379Z,1.60
2023-02-18T03:37:57.388Z,1.50
2023-02-18T03:38:57.373Z,1.60
2023-02-18T03:39:57.368Z,1.60
2023-02-18T03:40:57.345Z,1.60
2023-02-18T03:41:58.106Z,1.50
2023-02-18T03:42:57.321Z,1.80
2023-02-18T03:43:57.330Z,1.60
2023-02-18T03:44:57.304Z,1.50
2023-02-18T03:45:57.335Z,1.60
2023-02-18T03:46:57.272Z,1.50
2023-02-18T03:47:57.284Z,1.70
2023-02-18T03:48:57.264Z,1.50
2023-02-18T03:49:57.245Z,1.50
2023-02-18T03:50:57.242Z,1.50
2023-02-18T03:51:57.229Z,1.60
2023-02-18T03:52:57.222Z,1.50
2023-02-18T03:53:57.206Z,1.70
2023-02-18T03:54:57.193Z,1.70
2023-02-18T03:55:57.194Z,1.70
2023-02-18T03:56:57.198Z,1.60
2023-02-18T03:57:57.175Z,1.50
2023-02-18T03:58:57.149Z,1.50
2023-02-18T03:59:57.167Z,1.80
2023-02-18T04:00:57.170Z,1.60
2023-02-18T04:01:57.121Z,1.50
2023-02-18T04:02:57.108Z,1.50
2023-02-18T04:03:57.134Z,1.50
2023-02-18T04:04:57.093Z,1.50
2023-02-18T04:05:57.079Z,1.60
2023-02-18T04:06:57.066Z,1.60
2023-02-18T04:07:57.057Z,1.60
2023-02-18T04:08:57.067Z,1.50
2023-02-18T04:09:57.038Z,1.70
2023-02-18T04:10:57.035Z,1.60
2023-02-18T04:11:57.024Z,1.50
2023-02-18T04:12:57.005Z,1.50
2023-02-18T04:13:57.006Z,1.50
2023-02-18T04:14:56.996Z,1.60
2023-02-18T04:15:57.001Z,1.60
2023-02-18T04:16:56.976Z,1.40
2023-02-18T04:17:56.957Z,1.50
2023-02-18T04:18:56.943Z,1.70
2023-02-18T04:19:56.938Z,1.60
2023-02-18T04:20:56.939Z,1.60
2023-02-18T04:21:56.929Z,1.70
2023-02-18T04:22:56.900Z,1.40
2023-02-18T04:23:56.894Z,1.50
2023-02-18T04:24:56.881Z,1.60
2023-02-18T04:25:56.882Z,1.50
2023-02-18T04:26:56.888Z,1.50
2023-02-18T04:27:56.852Z,1.60
2023-02-18T04:28:56.841Z,1.60
2023-02-18T04:29:56.860Z,1.50
2023-02-18T04:30:56.854Z,1.60
2023-02-18T04:31:56.828Z,1.50
2023-02-18T04:32:56.797Z,1.50
2023-02-18T04:33:56.799Z,1.40
2023-02-18T04:34:56.779Z,1.50
2023-02-18T04:35:56.779Z,1.60
2023-02-18T04:36:56.764Z,1.50
2023-02-18T04:37:56.751Z,1.50
2023-02-18T04:38:56.743Z,1.50
2023-02-18T04:39:56.738Z,1.60
2023-02-18T04:40:56.722Z,1.50
2023-02-18T04:41:56.712Z,1.70
2023-02-18T04:42:56.695Z,1.70
2023-02-18T04:43:56.693Z,1.50
2023-02-18T04:44:56.677Z,1.40
2023-02-18T04:45:56.742Z,1.40
2023-02-18T04:46:57.748Z,1.70
2023-02-18T04:47:56.646Z,1.60
2023-02-18T04:48:56.637Z,1.70
2023-02-18T04:49:56.626Z,1.60
2023-02-18T04:50:56.622Z,1.50
2023-02-18T04:51:56.609Z,1.50
2023-02-18T04:52:56.604Z,1.50
2023-02-18T04:53:56.588Z,1.60
2023-02-18T04:54:56.603Z,1.60
2023-02-18T04:55:56.578Z,1.60
2023-02-18T04:56:56.548Z,1.30
2023-02-18T04:57:56.548Z,1.50
2023-02-18T04:58:56.528Z,1.50
2023-02-18T04:59:56.524Z,1.40
2023-02-18T05:00:56.509Z,1.60
2023-02-18T05:01:56.513Z,1.50
2023-02-18T05:02:56.520Z,1.60
2023-02-18T05:03:56.516Z,1.50
2023-02-18T05:04:56.476Z,1.60
2023-02-18T05:05:56.483Z,1.40
2023-02-18T05:06:56.479Z,1.40
2023-02-18T05:07:56.449Z,1.40
2023-02-18T05:08:56.433Z,1.40
2023-02-18T05:09:56.426Z,1.40
2023-02-18T05:10:56.424Z,1.40
2023-02-18T05:11:56.422Z,1.50
2023-02-18T05:12:56.395Z,1.40
2023-02-18T05:13:56.390Z,1.50
2023-02-18T05:14:56.384Z,1.60
2023-02-18T05:15:56.390Z,1.40
2023-02-18T05:16:56.358Z,1.40
2023-02-18T05:17:56.350Z,1.40
2023-02-18T05:18:56.340Z,1.30
2023-02-18T05:19:56.334Z,1.40
2023-02-18T05:20:56.319Z,1.50
2023-02-18T05:21:56.304Z,1.50
2023-02-18T05:22:56.302Z,1.40
2023-02-18T05:23:56.290Z,1.40
2023-02-18T05:24:56.278Z,1.50
2023-02-18T05:25:56.264Z,1.30
2023-02-18T05:26:56.259Z,1.60
2023-02-18T05:27:56.243Z,1.40
2023-02-18T05:28:56.245Z,1.50
2023-02-18T05:29:56.332Z,1.40
2023-02-18T05:30:56.257Z,1.40
2023-02-18T05:31:56.239Z,1.40
2023-02-18T05:32:56.190Z,1.40
2023-02-18T05:33:56.185Z,1.30
2023-02-18T05:34:56.201Z,1.40
2023-02-18T05:35:56.158Z,1.40
2023-02-18T05:36:56.146Z,1.50
2023-02-18T05:37:56.149Z,1.50
2023-02-18T05:38:56.125Z,1.40
2023-02-18T05:39:56.148Z,1.40
2023-02-18T05:40:56.121Z,1.40
2023-02-18T05:41:56.104Z,1.40
2023-02-18T05:42:56.098Z,1.30
2023-02-18T05:43:56.076Z,1.40
2023-02-18T05:44:56.064Z,1.30
2023-02-18T05:45:56.061Z,1.40
2023-02-18T05:46:56.042Z,1.50
2023-02-18T05:47:56.045Z,1.40
2023-02-18T05:48:56.020Z,1.40
2023-02-18T05:49:56.017Z,1.30
2023-02-18T05:50:55.998Z,1.40
2023-02-18T05:51:56.028Z,1.20
2023-02-18T05:52:55.978Z,1.30
2023-02-18T05:53:56.291Z,1.30
2023-02-18T05:54:55.972Z,1.40
2023-02-18T05:55:55.956Z,1.50
2023-02-18T05:56:55.934Z,1.30
2023-02-18T05:57:55.937Z,1.40
2023-02-18T05:58:55.921Z,1.50
2023-02-18T05:59:55.920Z,1.40
2023-02-18T06:00:55.896Z,1.30
2023-02-18T06:01:55.893Z,1.40
2023-02-18T06:02:55.915Z,1.30
2023-02-18T06:03:55.871Z,1.20
2023-02-18T06:04:55.866Z,1.40
2023-02-18T06:05:55.873Z,1.30
2023-02-18T06:06:55.837Z,1.30
2023-02-18T06:07:56.789Z,1.30
2023-02-18T06:08:55.827Z,1.40
2023-02-18T06:09:55.823Z,1.30
2023-02-18T06:10:55.797Z,1.30
2023-02-18T06:11:55.781Z,1.40
2023-02-18T06:12:55.796Z,1.30
2023-02-18T06:13:55.760Z,1.20
2023-02-18T06:14:55.769Z,1.40
2023-02-18T06:15:55.756Z,1.30
2023-02-18T06:16:55.736Z,1.30
2023-02-18T06:17:55.722Z,1.10
2023-02-18T06:18:55.730Z,1.30
2023-02-18T06:19:55.715Z,1.30
2023-02-18T06:20:55.706Z,1.50
2023-02-18T06:21:55.682Z,1.20
2023-02-18T06:22:55.676Z,1.30
2023-02-18T06:23:55.668Z,1.30
2023-02-18T06:24:55.657Z,1.40
2023-02-18T06:25:55.637Z,1.30
2023-02-18T06:26:55.637Z,1.30
2023-02-18T06:27:55.625Z,1.40
2023-02-18T06:28:55.621Z,1.40
2023-02-18T06:29:55.616Z,1.30
2023-02-18T06:30:55.587Z,1.30
2023-02-18T06:31:55.739Z,1.30
2023-02-18T06:32:55.581Z,1.40
2023-02-18T06:33:55.557Z,1.30
2023-02-18T06:34:55.549Z,1.30
2023-02-18T06:35:55.542Z,1.50
2023-02-18T06:36:55.529Z,1.30
2023-02-18T06:37:55.515Z,1.20
2023-02-18T06:38:55.510Z,1.30
2023-02-18T06:39:55.491Z,1.30
2023-02-18T06:40:55.494Z,1.20
2023-02-18T06:41:55.550Z,1.20
2023-02-18T06:42:55.466Z,1.30
2023-02-18T06:43:55.464Z,1.40
2023-02-18T06:44:55.459Z,1.20
2023-02-18T06:45:55.439Z,1.20
2023-02-18T06:46:55.551Z,1.20
2023-02-18T06:47:55.420Z,1.40
2023-02-18T06:48:55.414Z,1.30
2023-02-18T06:49:55.400Z,1.30
2023-02-18T06:50:55.423Z,1.20
2023-02-18T06:51:55.387Z,1.30
2023-02-18T06:52:55.363Z,1.20
2023-02-18T06:53:55.347Z,1.30
2023-02-18T06:54:55.354Z,1.40
2023-02-18T06:55:55.325Z,1.30
2023-02-18T06:56:55.323Z,1.30
2023-02-18T06:57:55.325Z,1.20
2023-02-18T06:58:55.301Z,1.20
2023-02-18T06:59:55.282Z,1.20
2023-02-18T07:00:55.340Z,1.20
2023-02-18T07:01:55.275Z,1.20
2023-02-18T07:02:55.261Z,1.30
2023-02-18T07:03:55.318Z,1.30
2023-02-18T07:04:55.244Z,1.30
2023-02-18T07:07:05.777Z,1.40
2023-02-18T07:08:06.757Z,1.30
2023-02-18T07:09:06.754Z,1.30
2023-02-18T07:10:06.736Z,1.20
2023-02-18T07:11:06.716Z,1.50
2023-02-18T07:12:06.721Z,1.30
2023-02-18T07:13:06.695Z,1.30
2023-02-18T07:14:08.334Z,1.40
2023-02-18T07:15:06.686Z,1.20
2023-02-18T07:16:07.097Z,1.20
2023-02-18T07:17:06.655Z,1.20
2023-02-18T07:18:06.645Z,1.20
2023-02-18T07:19:06.649Z,1.10
2023-02-18T07:20:06.632Z,1.30
2023-02-18T07:21:06.613Z,1.10
2023-02-18T07:22:06.604Z,1.10
2023-02-18T07:23:06.601Z,1.30
2023-02-18T07:24:06.596Z,1.20
2023-02-18T07:25:06.614Z,1.20
2023-02-18T07:26:06.916Z,1.10
2023-02-18T07:27:06.550Z,1.30
2023-02-18T07:28:06.566Z,1.20
2023-02-18T07:29:06.535Z,1.20
2023-02-18T07:30:06.555Z,1.30
2023-02-18T07:31:06.598Z,1.20
2023-02-18T07:32:06.511Z,1.10
2023-02-18T07:33:06.484Z,1.10
2023-02-18T07:34:06.482Z,1.20
2023-02-18T07:35:06.463Z,1.20
2023-02-18T07:36:06.894Z,1.30
2023-02-18T07:37:06.448Z,1.20
2023-02-18T07:38:06.439Z,1.20
2023-02-18T07:39:06.421Z,1.30
2023-02-18T07:40:06.420Z,1.30
2023-02-18T07:41:06.415Z,1.20
2023-02-18T07:42:06.399Z,1.30
2023-02-18T07:43:06.380Z,1.30
2023-02-18T07:44:06.383Z,1.10
2023-02-18T07:45:06.360Z,1.30
2023-02-18T07:46:06.746Z,1.10
2023-02-18T07:47:06.340Z,1.30
2023-02-18T07:48:06.340Z,1.30
2023-02-18T07:49:06.322Z,1.20
2023-02-18T07:50:06.317Z,1.00
2023-02-18T07:51:06.309Z,1.20
2023-02-18T07:52:06.295Z,1.20
2023-02-18T07:53:06.276Z,1.10
2023-02-18T07:54:06.274Z,1.10
2023-02-18T07:55:06.259Z,1.30
2023-02-18T07:56:06.432Z,1.20
2023-02-18T07:57:06.249Z,1.20
2023-02-18T07:58:06.235Z,1.20
2023-02-18T07:59:06.224Z,1.10
2023-02-18T08:00:06.230Z,1.30
2023-02-18T08:01:06.202Z,1.30
2023-02-18T08:02:06.229Z,1.20
2023-02-18T08:03:06.187Z,1.10
2023-02-18T08:04:06.238Z,1.10
2023-02-18T08:05:06.166Z,1.20
2023-02-18T08:06:06.503Z,1.10
2023-02-18T08:07:06.146Z,1.20
2023-02-18T08:08:06.121Z,1.20
2023-02-18T08:09:06.115Z,1.10
2023-02-18T08:10:06.103Z,1.10
2023-02-18T08:11:18.012Z,1.10
2023-02-18T08:12:06.100Z,1.10
2023-02-18T08:13:06.070Z,1.30
2023-02-18T08:14:06.071Z,1.30
2023-02-18T08:15:06.055Z,1.10
2023-02-18T08:16:06.182Z,1.10
2023-02-18T08:17:06.025Z,1.10
2023-02-18T08:18:06.040Z,1.10
2023-02-18T08:19:06.023Z,1.10
2023-02-18T08:20:06.010Z,1.10
2023-02-18T08:21:05.991Z,1.00
2023-02-18T08:22:05.985Z,1.00
2023-02-18T08:23:05.967Z,1.10
2023-02-18T08:24:05.974Z,1.10
2023-02-18T08:25:05.948Z,1.10
2023-02-18T08:26:06.192Z,1.20
2023-02-18T08:27:05.929Z,1.20
2023-02-18T08:28:05.924Z,1.00
2023-02-18T08:29:05.920Z,1.20
2023-02-18T08:30:05.944Z,1.30
2023-02-18T08:31:05.970Z,1.10
2023-02-18T08:32:05.998Z,1.20
2023-02-18T08:33:05.887Z,1.20
2023-02-18T08:34:05.874Z,1.20
2023-02-18T08:35:05.847Z,1.20
2023-02-18T08:36:05.972Z,1.30
2023-02-18T08:37:05.878Z,1.20
2023-02-18T08:38:05.789Z,1.20
2023-02-18T08:39:05.773Z,1.20
2023-02-18T08:40:05.782Z,1.20
2023-02-18T08:41:05.903Z,1.20
2023-02-18T08:42:05.761Z,1.10
2023-02-18T08:43:05.768Z,1.20
2023-02-18T08:44:05.770Z,1.10
2023-02-18T08:45:05.743Z,1.10
2023-02-18T08:46:05.795Z,1.20
2023-02-18T08:47:05.759Z,1.20
2023-02-18T08:48:21.009Z,1.10
2023-02-18T08:49:05.719Z,1.20
2023-02-18T08:50:05.707Z,1.20
2023-02-18T08:51:07.759Z,1.10
2023-02-18T08:52:05.681Z,1.10
2023-02-18T08:53:05.686Z,1.20
2023-02-18T08:54:05.660Z,1.10
2023-02-18T08:55:05.650Z,1.10
2023-02-18T08:56:05.642Z,1.10
2023-02-18T08:57:05.643Z,1.20
2023-02-18T08:58:05.620Z,1.20
2023-02-18T08:59:05.613Z,1.20
2023-02-18T09:00:05.602Z,1.20
2023-02-18T09:01:05.871Z,1.20
2023-02-18T09:02:05.592Z,1.10
2023-02-18T09:03:05.566Z,1.20
2023-02-18T09:04:05.592Z,1.10
2023-02-18T09:05:05.548Z,1.00
2023-02-18T09:06:05.574Z,1.20
2023-02-18T09:07:05.531Z,1.10
2023-02-18T09:08:05.521Z,1.20
2023-02-18T09:09:05.516Z,1.20
2023-02-18T09:10:05.495Z,1.10
2023-02-18T09:11:05.489Z,1.00
2023-02-18T09:12:05.482Z,1.10
2023-02-18T09:13:05.457Z,1.20
2023-02-18T09:14:05.472Z,1.20
2023-02-18T09:15:05.443Z,1.20
2023-02-18T09:16:05.613Z,1.10
2023-02-18T09:17:05.419Z,1.30
2023-02-18T09:18:05.418Z,1.10
2023-02-18T09:19:05.428Z,1.10
2023-02-18T09:20:05.402Z,1.10
2023-02-18T09:21:05.547Z,1.00
2023-02-18T09:22:05.374Z,1.00
2023-02-18T09:23:05.435Z,1.10
2023-02-18T09:24:05.352Z,1.10
2023-02-18T09:25:05.348Z,1.10
2023-02-18T09:26:05.329Z,1.10
2023-02-18T09:27:05.311Z,1.20
2023-02-18T09:28:05.321Z,1.10
2023-02-18T09:29:05.291Z,1.20
2023-02-18T09:30:05.464Z,1.00
2023-02-18T09:31:05.318Z,1.10
2023-02-18T09:32:05.313Z,1.10
2023-02-18T09:33:05.248Z,1.20
2023-02-18T09:34:05.260Z,1.10
2023-02-18T09:35:05.233Z,1.10
2023-02-18T09:36:05.217Z,1.40
2023-02-18T09:37:05.218Z,1.00
2023-02-18T09:38:05.207Z,1.20
2023-02-18T09:39:05.186Z,1.10
2023-02-18T09:40:05.188Z,1.00
2023-02-18T09:41:05.180Z,1.20
2023-02-18T09:42:05.156Z,1.10
2023-02-18T09:43:05.149Z,1.20
2023-02-18T09:44:05.146Z,1.10
2023-02-18T09:45:05.131Z,1.00
2023-02-18T09:46:05.225Z,1.10
2023-02-18T09:47:05.117Z,1.00
2023-02-18T09:48:05.091Z,1.10
2023-02-18T09:49:05.092Z,1.00
2023-02-18T09:50:05.072Z,1.10
2023-02-18T09:51:05.065Z,1.20
2023-02-18T09:52:05.054Z,1.30
2023-02-18T09:53:05.040Z,1.00
2023-02-18T09:54:05.045Z,1.00
2023-02-18T09:55:05.017Z,1.00
2023-02-18T09:56:05.014Z,1.20
2023-02-18T09:57:04.996Z,1.10
2023-02-18T09:58:04.993Z,1.10
2023-02-18T09:59:04.993Z,1.10
2023-02-18T10:00:04.976Z,1.00
2023-02-18T10:01:04.965Z,1.20
2023-02-18T10:02:05.075Z,1.10
2023-02-18T10:03:04.945Z,1.10
2023-02-18T10:04:04.951Z,1.00
2023-02-18T10:05:04.914Z,1.10
2023-02-18T10:06:04.926Z,1.00
2023-02-18T10:07:04.911Z,1.00
2023-02-18T10:08:04.898Z,1.10
2023-02-18T10:09:04.884Z,1.00
2023-02-18T10:10:04.884Z,0.90
2023-02-18T10:11:04.858Z,1.10
2023-02-18T10:12:04.855Z,1.10
2023-02-18T10:13:04.832Z,1.10
2023-02-18T10:14:04.846Z,1.10
2023-02-18T10:15:04.827Z,1.00
2023-02-18T10:16:04.891Z,1.00
2023-02-18T10:17:04.794Z,1.10
2023-02-18T10:18:04.781Z,1.00
2023-02-18T10:19:04.768Z,1.20
2023-02-18T10:20:07.906Z,1.00
2023-02-18T10:21:04.776Z,1.10
2023-02-18T10:22:04.751Z,1.00
2023-02-18T10:23:04.726Z,1.10
2023-02-18T10:24:04.720Z,1.10
2023-02-18T10:25:04.753Z,1.00
2023-02-18T10:26:04.712Z,1.10
2023-02-18T10:27:04.690Z,1.00
2023-02-18T10:28:04.724Z,1.10
2023-02-18T10:29:04.673Z,1.20
2023-02-18T10:30:04.691Z,1.10
2023-02-18T10:31:04.724Z,1.00
2023-02-18T10:32:04.712Z,1.10
2023-02-18T10:33:04.640Z,1.10
2023-02-18T10:34:04.631Z,1.10
2023-02-18T10:35:04.623Z,1.20
2023-02-18T10:36:04.559Z,1.20
2023-02-18T10:37:04.531Z,0.90
2023-02-18T10:38:04.527Z,1.00
2023-02-18T10:39:04.517Z,1.10
2023-02-18T10:40:04.576Z,1.00
2023-02-18T10:41:04.543Z,1.10
2023-02-18T10:42:04.536Z,1.20
2023-02-18T10:43:04.480Z,1.00
2023-02-18T10:44:04.461Z,1.00
2023-02-18T10:45:04.466Z,1.10
2023-02-18T10:46:04.499Z,1.10
2023-02-18T10:47:04.479Z,1.10
2023-02-18T10:48:04.483Z,1.00
2023-02-18T10:49:04.457Z,1.10
2023-02-18T10:50:04.462Z,1.00
2023-02-18T10:51:04.444Z,1.00
2023-02-18T10:52:04.430Z,1.10
2023-02-18T10:53:04.416Z,1.10
2023-02-18T10:54:04.417Z,1.00
2023-02-18T10:55:04.421Z,1.00
2023-02-18T10:56:04.414Z,1.00
2023-02-18T10:57:04.646Z,1.00
2023-02-18T10:58:04.359Z,1.10
2023-02-18T10:59:04.362Z,0.90
2023-02-18T11:00:04.342Z,1.00
2023-02-18T11:01:04.332Z,1.10
2023-02-18T11:02:04.327Z,1.00
2023-02-18T11:03:04.313Z,1.00
2023-02-18T11:04:04.304Z,1.00
2023-02-18T11:05:04.296Z,1.00
2023-02-18T11:06:04.287Z,1.00
2023-02-18T11:07:04.271Z,1.20
2023-02-18T11:08:04.254Z,1.20
2023-02-18T11:09:04.259Z,1.00
2023-02-18T11:10:04.233Z,1.00
2023-02-18T11:11:04.233Z,1.00
2023-02-18T11:12:08.573Z,1.00
2023-02-18T11:13:04.224Z,1.10
2023-02-18T11:14:04.213Z,1.00
2023-02-18T11:15:04.185Z,1.10
2023-02-18T11:16:04.330Z,1.00
2023-02-18T11:17:04.169Z,1.00
2023-02-18T11:18:04.198Z,1.00
2023-02-18T11:19:04.184Z,1.00
2023-02-18T11:20:04.130Z,1.00
2023-02-18T11:21:04.133Z,1.10
2023-02-18T11:22:04.114Z,1.10
2023-02-18T11:23:04.106Z,1.00
2023-02-18T11:24:04.100Z,1.10
2023-02-18T11:25:04.083Z,1.00
2023-02-18T11:26:04.069Z,1.00
2023-02-18T11:27:04.062Z,1.10
2023-02-18T11:28:04.046Z,1.10
2023-02-18T11:29:04.055Z,1.10
2023-02-18T11:30:04.097Z,1.00
2023-02-18T11:31:04.053Z,1.00
2023-02-18T11:32:04.123Z,1.00
2023-02-18T11:33:04.058Z,1.10
2023-02-18T11:34:03.986Z,1.00
2023-02-18T11:35:04.011Z,1.00
2023-02-18T11:36:03.968Z,1.10
2023-02-18T11:37:03.963Z,1.00
2023-02-18T11:38:03.950Z,0.90
2023-02-18T11:39:03.951Z,0.90
2023-02-18T11:40:03.939Z,1.00
2023-02-18T11:41:03.929Z,1.00
2023-02-18T11:42:03.913Z,1.10
2023-02-18T11:43:03.901Z,1.10
2023-02-18T11:44:03.854Z,1.00
2023-02-18T11:45:05.606Z,1.00
2023-02-18T11:46:03.868Z,1.00
2023-02-18T11:47:03.871Z,1.00
2023-02-18T11:48:03.846Z,1.00
2023-02-18T11:49:03.845Z,0.90
2023-02-18T11:50:03.835Z,1.00
2023-02-18T11:51:05.306Z,1.10
2023-02-18T11:52:03.800Z,1.00
2023-02-18T11:53:03.794Z,1.00
2023-02-18T11:54:03.793Z,1.00
2023-02-18T11:55:03.786Z,1.10
2023-02-18T11:56:03.760Z,0.90
2023-02-18T11:57:03.757Z,1.00
2023-02-18T11:58:03.752Z,1.00
2023-02-18T11:59:03.736Z,1.00
2023-02-18T12:00:03.733Z,1.00
2023-02-18T12:01:03.726Z,1.10
2023-02-18T12:02:03.836Z,0.90
2023-02-18T12:03:03.707Z,1.00
2023-02-18T12:04:03.683Z,1.10
2023-02-18T12:05:03.726Z,1.10
2023-02-18T12:06:03.666Z,1.00
2023-02-18T12:07:03.665Z,1.00
2023-02-18T12:08:03.598Z,1.00
2023-02-18T12:09:03.588Z,1.00
2023-02-18T12:10:03.629Z,1.00
2023-02-18T12:11:03.616Z,0.90
2023-02-18T12:12:03.611Z,1.00
2023-02-18T12:13:03.599Z,1.10
2023-02-18T12:14:03.586Z,1.00
2023-02-18T12:15:03.604Z,1.10
2023-02-18T12:16:03.562Z,1.00
2023-02-18T12:17:03.561Z,1.00
2023-02-18T12:18:03.543Z,1.00
2023-02-18T12:19:03.538Z,1.10
2023-02-18T12:20:03.532Z,1.00
2023-02-18T12:21:03.514Z,1.00
2023-02-18T12:22:03.502Z,1.10
2023-02-18T12:23:03.504Z,1.10
2023-02-18T12:24:03.484Z,1.00
2023-02-18T12:25:03.509Z,1.00
2023-02-18T12:26:03.483Z,0.90
2023-02-18T12:27:03.453Z,1.00
2023-02-18T12:28:03.440Z,1.00
2023-02-18T12:29:03.440Z,1.00
2023-02-18T12:30:03.469Z,1.10
2023-02-18T12:31:03.470Z,1.00
2023-02-18T12:32:03.447Z,1.00
2023-02-18T12:33:03.398Z,1.00
2023-02-18T12:34:03.388Z,1.10
2023-02-18T12:35:03.373Z,1.10
2023-02-18T12:36:03.375Z,1.00
2023-02-18T12:37:03.356Z,0.90
2023-02-18T12:38:03.409Z,1.00
2023-02-18T12:39:03.341Z,0.90
2023-02-18T12:40:03.320Z,0.90
2023-02-18T12:41:03.315Z,1.00
2023-02-18T12:42:03.295Z,0.90
2023-02-18T12:43:03.289Z,1.00
2023-02-18T12:44:03.291Z,1.00
2023-02-18T12:45:03.268Z,0.90
2023-02-18T12:46:03.290Z,1.00
2023-02-18T12:47:03.249Z,1.00
2023-02-18T12:48:03.236Z,1.00
2023-02-18T12:49:03.236Z,1.00
2023-02-18T12:50:03.231Z,1.10
2023-02-18T12:51:03.208Z,1.00
2023-02-18T12:52:03.198Z,1.00
2023-02-18T12:53:03.193Z,1.00
2023-02-18T12:54:04.797Z,0.90
2023-02-18T12:55:03.175Z,1.00
2023-02-18T12:56:03.151Z,1.00
2023-02-18T12:57:03.143Z,1.00
2023-02-18T12:58:03.134Z,1.10
2023-02-18T12:59:03.141Z,0.90
2023-02-18T13:00:03.125Z,1.10
2023-02-18T13:01:03.161Z,1.00
2023-02-18T13:02:03.093Z,1.00
2023-02-18T13:03:03.140Z,1.10
2023-02-18T13:04:03.065Z,1.00
2023-02-18T13:05:03.073Z,1.10
2023-02-18T13:06:03.048Z,1.10
2023-02-18T13:07:03.049Z,1.00
2023-02-18T13:08:03.027Z,1.00
2023-02-18T13:09:03.036Z,0.90
2023-02-18T13:10:03.038Z,1.00
2023-02-18T13:11:03.003Z,1.30
2023-02-18T13:12:02.995Z,1.20
2023-02-18T13:13:02.983Z,0.90
2023-02-18T13:14:02.967Z,0.90
2023-02-18T13:15:02.959Z,1.00
2023-02-18T13:16:02.966Z,1.10
2023-02-18T13:17:03.028Z,1.00
2023-02-18T13:18:02.934Z,1.00
2023-02-18T13:19:02.936Z,0.90
2023-02-18T13:20:02.906Z,1.10